Time;durP1;ratioP1;P1;durP2;ratioP2;P2;SDS_P1;SDS_P2;PMS_P1;PMS_P2;Temp;Humidity;BMP_temperature;BMP_pressure;BME280_temperature;BME280_humidity;BME280_pressure;Samples;Min_cycle;Max_cycle;Signal;HPM_P1;HPM_P2
2024/02/09 00:02:03;;;;;;;17.88;8.18;;;;;;;9.22;100.00;98397.88;5019896;28;20060;-80
2024/02/09 00:04:31;;;;;;;22.73;10.02;;;;;;;9.25;100.00;98403.63;5022068;28;20504;-79
2024/02/09 00:06:58;;;;;;;20.75;9.32;;;;;;;9.24;100.00;98399.38;5019087;28;20092;-78
2024/02/09 00:09:25;;;;;;;17.80;8.13;;;;;;;9.30;100.00;98397.81;5008687;28;20297;-79
2024/02/09 00:11:52;;;;;;;18.10;8.85;;;;;;;9.24;100.00;98393.25;5013741;28;20148;-79
2024/02/09 00:14:18;;;;;;;22.10;8.07;;;;;;;9.18;100.00;98386.06;5014157;28;20046;-79
2024/02/09 00:16:45;;;;;;;17.73;8.48;;;;;;;9.24;100.00;98387.97;5020698;28;20081;-79
2024/02/09 00:19:12;;;;;;;23.40;8.88;;;;;;;9.30;100.00;98389.91;5016164;28;20766;-79
2024/02/09 00:21:40;;;;;;;25.33;9.00;;;;;;;9.27;100.00;98377.88;5013755;28;20134;-79
2024/02/09 00:24:07;;;;;;;23.38;8.35;;;;;;;9.28;100.00;98374.22;5028393;23;20132;-79
2024/02/09 00:26:33;;;;;;;18.85;8.57;;;;;;;9.28;100.00;98362.84;5010825;28;20046;-79
2024/02/09 00:29:01;;;;;;;24.80;8.65;;;;;;;9.29;100.00;98359.22;5009141;28;20045;-78
2024/02/09 00:31:27;;;;;;;17.75;7.88;;;;;;;9.25;100.00;98365.88;5010819;28;20584;-78
2024/02/09 00:33:54;;;;;;;19.08;8.65;;;;;;;9.27;100.00;98362.03;4998142;28;20137;-78
2024/02/09 00:36:22;;;;;;;25.08;8.23;;;;;;;9.28;100.00;98347.00;4995287;28;20133;-78
2024/02/09 00:38:50;;;;;;;17.42;8.05;;;;;;;9.35;100.00;98353.22;5010150;28;20096;-78
2024/02/09 00:41:18;;;;;;;18.92;8.48;;;;;;;9.28;100.00;98344.38;5005872;28;20505;-79
2024/02/09 00:43:46;;;;;;;22.17;8.25;;;;;;;9.25;100.00;98350.03;5010953;28;20092;-78
2024/02/09 00:46:15;;;;;;;24.63;8.32;;;;;;;9.25;100.00;98342.94;5004472;28;20167;-78
2024/02/09 00:48:41;;;;;;;22.98;8.88;;;;;;;9.30;100.00;98345.84;5009227;28;20149;-78
2024/02/09 00:51:08;;;;;;;22.17;8.73;;;;;;;9.25;100.00;98336.84;5006136;28;20485;-78
2024/02/09 00:53:35;;;;;;;25.92;8.23;;;;;;;9.22;100.00;98332.72;5008878;28;20054;-78
2024/02/09 00:56:03;;;;;;;22.73;8.45;;;;;;;9.14;100.00;98324.91;5005142;28;20089;-78
2024/02/09 00:58:29;;;;;;;22.67;8.40;;;;;;;9.18;100.00;98320.91;5008135;28;20081;-77
2024/02/09 01:00:56;;;;;;;20.70;8.25;;;;;;;9.11;100.00;98310.25;5017147;28;20110;-79
2024/02/09 01:03:24;;;;;;;25.65;9.23;;;;;;;9.11;100.00;98310.25;5017007;28;20076;-79
2024/02/09 01:05:50;;;;;;;20.65;8.95;;;;;;;9.09;100.00;98309.59;5008740;28;20042;-76
2024/02/09 01:08:18;;;;;;;24.65;8.55;;;;;;;9.14;100.00;98303.78;5010143;28;20084;-79
2024/02/09 01:10:46;;;;;;;21.85;9.45;;;;;;;9.16;100.00;98309.72;5025076;28;20054;-79
2024/02/09 02:46:20;;;;;;;18.25;7.25;;;;;;;9.09;100.00;98164.50;5014323;28;20461;-79
2024/02/09 03:05:17;;;;;;;16.00;7.72;;;;;;;9.04;100.00;98124.66;5013737;28;20479;-79
2024/02/09 03:07:48;;;;;;;20.73;7.47;;;;;;;9.00;100.00;98120.75;5010960;28;20061;-79
2024/02/09 03:10:15;;;;;;;12.15;7.53;;;;;;;9.06;100.00;98121.84;5013957;28;20049;-79
2024/02/09 03:12:42;;;;;;;16.30;8.15;;;;;;;9.10;100.00;98116.00;5013922;28;20520;-80
2024/02/09 03:15:10;;;;;;;16.50;7.28;;;;;;;9.03;100.00;98120.41;5013846;28;20148;-79
2024/02/09 03:17:38;;;;;;;16.88;7.57;;;;;;;9.01;100.00;98117.13;5012295;28;20052;-77
2024/02/09 03:20:05;;;;;;;16.50;8.02;;;;;;;9.06;100.00;98116.56;5013103;28;20528;-80
2024/02/09 03:22:32;;;;;;;16.83;7.65;;;;;;;9.03;100.00;98116.94;5012875;28;20141;-79
2024/02/09 03:25:02;;;;;;;17.88;7.63;;;;;;;9.02;100.00;98110.06;5012357;28;20042;-79
2024/02/09 03:27:31;;;;;;;16.83;8.77;;;;;;;8.99;100.00;98116.50;5012744;28;20389;-79
2024/02/09 03:29:59;;;;;;;16.40;8.00;;;;;;;9.05;100.00;98110.47;5005410;28;20053;-79
2024/02/09 03:32:25;;;;;;;17.08;7.25;;;;;;;9.04;100.00;98108.84;5005382;28;20053;-79
2024/02/09 03:34:52;;;;;;;16.15;7.38;;;;;;;9.02;100.00;98115.31;5006915;28;20085;-80
2024/02/09 03:37:20;;;;;;;15.35;7.05;;;;;;;9.06;100.00;98120.03;5006795;28;20133;-79
2024/02/09 03:39:47;;;;;;;15.93;7.10;;;;;;;9.14;100.00;98118.28;5015431;28;20046;-79
2024/02/09 03:42:15;;;;;;;12.23;6.88;;;;;;;9.03;100.00;98117.75;5016034;28;20046;-79
2024/02/09 03:44:43;;;;;;;15.93;6.38;;;;;;;9.08;100.00;98115.38;5006174;28;20516;-79
2024/02/09 03:47:10;;;;;;;14.05;6.55;;;;;;;9.04;100.00;98119.41;5015666;28;20054;-80
2024/02/09 03:49:36;;;;;;;7.75;4.95;;;;;;;9.01;100.00;98108.38;5013740;28;20089;-80
2024/02/09 03:52:05;;;;;;;10.70;5.25;;;;;;;9.00;100.00;98112.84;5015231;28;20496;-80
2024/02/09 03:54:33;;;;;;;8.10;4.75;;;;;;;9.07;100.00;98102.38;5015845;28;20057;-80
2024/02/09 03:56:59;;;;;;;8.35;4.30;;;;;;;9.14;100.00;98099.81;5015346;28;20053;-79
2024/02/09 03:59:29;;;;;;;7.85;4.13;;;;;;;9.13;100.00;98090.25;5013378;28;20141;-79
2024/02/09 04:01:56;;;;;;;8.15;3.30;;;;;;;9.10;100.00;98086.97;5010137;28;20056;-78
2024/02/09 04:04:22;;;;;;;6.45;3.53;;;;;;;9.10;100.00;98096.72;5015515;28;20108;-80
2024/02/09 04:06:49;;;;;;;9.77;3.55;;;;;;;9.14;100.00;98092.69;5018824;28;20507;-80
2024/02/09 04:09:16;;;;;;;5.97;3.22;;;;;;;9.14;100.00;98091.88;5016154;28;20057;-81
2024/02/09 04:11:42;;;;;;;7.85;3.60;;;;;;;9.10;100.00;98086.97;5019729;28;20089;-80
2024/02/09 04:14:09;;;;;;;6.25;3.20;;;;;;;9.14;100.00;98092.69;5020615;28;20049;-80
2024/02/09 04:16:38;;;;;;;9.43;3.85;;;;;;;9.07;100.00;98092.66;5018388;28;20092;-80
2024/02/09 04:19:05;;;;;;;5.72;3.60;;;;;;;9.06;100.00;98091.03;5007451;28;20209;-80
2024/02/09 04:21:31;;;;;;;5.72;3.47;;;;;;;9.12;100.00;98094.72;5016557;28;20049;-79
2024/02/09 04:23:58;;;;;;;7.93;3.80;;;;;;;9.11;100.00;98091.28;5014574;28;20157;-79
2024/02/09 04:26:25;;;;;;;7.47;3.30;;;;;;;9.15;100.00;98088.25;5013349;28;20089;-79
2024/02/09 04:28:54;;;;;;;4.78;3.17;;;;;;;9.07;100.00;98082.09;5008410;28;20572;-78
2024/02/09 04:31:21;;;;;;;6.63;3.55;;;;;;;9.00;100.00;98083.84;5011895;28;20062;-77
2024/02/09 04:33:49;;;;;;;6.00;3.40;;;;;;;9.02;100.00;98083.66;5009332;28;20054;-78
2024/02/09 04:36:17;;;;;;;5.10;3.70;;;;;;;8.98;100.00;98085.03;5012142;28;20118;-78
2024/02/09 04:38:43;;;;;;;6.80;3.60;;;;;;;8.97;100.00;98083.38;5009783;28;20288;-78
2024/02/09 04:41:10;;;;;;;3.50;3.00;;;;;;;8.98;100.00;98077.13;5013979;28;20475;-80
2024/02/09 04:43:37;;;;;;;6.75;3.70;;;;;;;8.96;100.00;98079.13;5015208;28;20057;-80
2024/02/09 04:46:03;;;;;;;6.53;3.40;;;;;;;8.97;100.00;98071.00;5016474;28;20128;-80
2024/02/09 04:48:30;;;;;;;5.43;3.20;;;;;;;8.94;100.00;98070.59;5006995;28;20085;-79
2024/02/09 04:50:58;;;;;;;8.10;3.63;;;;;;;8.94;100.00;98063.50;5013615;28;20054;-80
2024/02/09 04:53:25;;;;;;;6.70;3.58;;;;;;;8.94;100.00;98066.13;5014804;28;20042;-79
2024/02/09 04:55:51;;;;;;;5.63;3.47;;;;;;;8.99;100.00;98070.84;5011920;28;20136;-80
2024/02/09 04:58:18;;;;;;;4.28;3.10;;;;;;;8.97;100.00;98067.56;5008384;28;20092;-79
2024/02/09 05:00:45;;;;;;;5.80;3.25;;;;;;;8.96;100.00;98074.66;5014593;28;20058;-80
2024/02/09 05:03:12;;;;;;;5.20;3.50;;;;;;;8.99;100.00;98065.56;5015633;28;20092;-80
2024/02/09 05:05:38;;;;;;;6.20;3.42;;;;;;;9.00;100.00;98073.28;5015495;28;20042;-80
2024/02/09 05:08:07;;;;;;;5.07;3.28;;;;;;;9.02;100.00;98068.66;5009142;28;20133;-79
2024/02/09 05:10:34;;;;;;;4.22;3.17;;;;;;;9.11;100.00;98072.81;5013990;28;20070;-77
2024/02/09 05:13:02;;;;;;;6.10;3.47;;;;;;;9.09;100.00;98069.53;5016392;28;20129;-78
2024/02/09 05:15:29;;;;;;;4.53;3.33;;;;;;;9.13;100.00;98075.25;5015158;28;20058;-79
2024/02/09 05:17:56;;;;;;;4.50;3.50;;;;;;;9.09;100.00;98077.44;5009044;28;20519;-79
2024/02/09 05:20:23;;;;;;;4.05;3.13;;;;;;;9.18;100.00;98067.56;5014911;28;20137;-77
2024/02/09 05:22:49;;;;;;;4.13;3.03;;;;;;;9.07;100.00;98076.81;5011881;28;20165;-78
2024/02/09 05:25:17;;;;;;;7.38;3.20;;;;;;;9.08;100.00;98067.88;5015451;28;20485;-79
2024/02/09 05:27:45;;;;;;;6.50;3.47;;;;;;;9.02;100.00;98073.94;5015591;28;20496;-78
2024/02/09 05:30:13;;;;;;;7.85;4.10;;;;;;;9.08;100.00;98075.81;5015596;28;20122;-78
2024/02/09 05:32:41;;;;;;;7.78;4.40;;;;;;;9.07;100.00;98068.09;5016038;28;20511;-79
2024/02/09 05:35:08;;;;;;;7.15;3.55;;;;;;;9.10;100.00;98065.06;5008732;28;20054;-78
2024/02/09 05:37:35;;;;;;;8.10;3.70;;;;;;;9.09;100.00;98069.53;5015728;28;20085;-78
2024/02/09 05:40:01;;;;;;;8.70;4.70;;;;;;;9.10;100.00;98065.88;5016003;28;20110;-79
2024/02/09 05:42:29;;;;;;;9.07;5.40;;;;;;;9.13;100.00;98063.88;5016661;28;20058;-79
2024/02/09 05:44:56;;;;;;;10.63;6.82;;;;;;;9.13;100.00;98058.59;5020003;28;20129;-79
2024/02/09 05:47:22;;;;;;;29.25;21.38;;;;;;;9.13;100.00;98053.31;5020035;28;20544;-79
2024/02/09 05:49:51;;;;;;;17.67;10.68;;;;;;;9.14;100.00;98060.22;5020491;28;20121;-80
2024/02/09 05:52:18;;;;;;;44.35;27.20;;;;;;;9.15;100.00;98051.28;5016892;28;20049;-81
2024/02/09 05:54:44;;;;;;;18.02;11.52;;;;;;;9.15;100.00;98048.66;5020207;28;20109;-80
2024/02/09 05:57:11;;;;;;;19.67;12.57;;;;;;;9.13;100.00;98048.03;5016151;28;20125;-80
2024/02/09 05:59:43;;;;;;;7.20;3.85;;;;;;;9.23;100.00;98051.19;5019184;28;20046;-81
2024/02/09 06:02:10;;;;;;;8.68;3.78;;;;;;;9.22;100.00;98049.56;5015948;28;20050;-81
2024/02/09 06:04:38;;;;;;;7.00;4.85;;;;;;;9.10;100.00;98041.31;5009131;28;20053;-80
2024/02/09 06:07:05;;;;;;;4.43;3.40;;;;;;;9.14;100.00;98039.94;5014189;28;20133;-80
2024/02/09 06:09:37;;;;;;;4.20;3.20;;;;;;;9.12;100.00;98039.31;5015957;28;20054;-79
2024/02/09 06:12:04;;;;;;;4.70;3.00;;;;;;;9.06;100.00;98040.91;5015648;28;20060;-79
2024/02/09 06:14:31;;;;;;;3.65;2.78;;;;;;;9.01;100.00;98029.25;5016318;28;20505;-79
2024/02/09 06:16:59;;;;;;;4.70;3.03;;;;;;;8.95;100.00;98028.19;5016965;28;20060;-79
2024/02/09 06:19:25;;;;;;;5.20;3.15;;;;;;;8.88;100.00;98019.38;5012037;28;20134;-79
2024/02/09 06:21:55;;;;;;;4.03;2.88;;;;;;;8.87;100.00;98023.03;5011783;28;20085;-79
2024/02/09 06:24:24;;;;;;;3.75;2.78;;;;;;;8.93;100.00;98022.31;5012494;28;20042;-78
2024/02/09 06:26:51;;;;;;;4.65;3.00;;;;;;;8.93;100.00;98027.56;5008838;28;20501;-79
2024/02/09 06:29:21;;;;;;;6.95;4.38;;;;;;;8.91;100.00;98026.94;5003670;28;20084;-79
2024/02/09 06:31:47;;;;;;;6.25;3.60;;;;;;;9.01;100.00;98029.25;5005783;28;20057;-79
2024/02/09 06:34:18;;;;;;;14.07;10.90;;;;;;;9.03;100.00;98024.63;5003195;28;20069;-79
2024/02/09 06:36:46;;;;;;;6.30;3.50;;;;;;;9.11;100.00;98016.59;5009090;28;20487;-79
2024/02/09 06:39:13;;;;;;;4.75;2.90;;;;;;;9.13;100.00;98024.31;5018893;28;20132;-78
2024/02/09 06:41:42;;;;;;;4.80;3.00;;;;;;;9.20;100.00;98022.56;5023919;28;20069;-79
2024/02/09 06:44:11;;;;;;;3.92;2.88;;;;;;;9.23;100.00;98038.78;5017293;28;20113;-79
2024/02/09 06:46:38;;;;;;;5.40;3.15;;;;;;;9.25;100.00;98036.00;5009766;28;20043;-79
2024/02/09 06:49:04;;;;;;;5.13;2.95;;;;;;;9.33;100.00;98038.47;5007749;28;20085;-79
2024/02/09 06:51:33;;;;;;;5.88;3.60;;;;;;;9.34;100.00;98042.75;5014733;28;20129;-77
2024/02/09 06:53:59;;;;;;;7.72;3.80;;;;;;;9.35;100.00;98041.75;4994212;28;20058;-78
2024/02/09 06:56:26;;;;;;;6.82;3.30;;;;;;;9.35;100.00;98047.84;5011897;28;20050;-78
2024/02/09 06:58:58;;;;;;;6.72;4.05;;;;;;;9.26;100.00;98042.88;5013259;28;20089;-79
2024/02/09 07:01:25;;;;;;;7.45;4.35;;;;;;;9.26;100.00;98051.63;5004139;28;20054;-79
2024/02/09 07:03:52;;;;;;;6.47;3.88;;;;;;;9.19;100.00;98049.91;5007074;28;20085;-79
2024/02/09 07:06:22;;;;;;;9.50;4.15;;;;;;;9.16;100.00;98048.50;5007278;28;20586;-81
2024/02/09 07:08:53;;;;;;;6.40;4.18;;;;;;;9.13;100.00;98055.97;5015084;28;20092;-79
2024/02/09 07:11:20;;;;;;;6.15;4.35;;;;;;;9.08;100.00;98046.78;5011563;28;20050;-79
2024/02/09 07:13:47;;;;;;;6.85;3.80;;;;;;;9.06;100.00;98048.81;5006377;28;20119;-79
2024/02/09 07:16:13;;;;;;;6.22;4.00;;;;;;;9.03;100.00;98048.38;5015263;28;20144;-78
2024/02/09 07:18:41;;;;;;;7.63;4.38;;;;;;;9.01;100.00;98037.97;5006944;28;20071;-79
2024/02/09 07:21:09;;;;;;;9.20;4.78;;;;;;;9.07;100.00;98044.34;5009574;28;20046;-78
2024/02/09 07:23:37;;;;;;;8.68;4.65;;;;;;;9.07;100.00;98036.44;5012151;28;20061;-77
2024/02/09 07:26:07;;;;;;;6.13;4.32;;;;;;;9.13;100.00;98040.13;5010023;28;20057;-78
2024/02/09 07:28:34;;;;;;;9.07;5.30;;;;;;;9.17;100.00;98050.13;5012149;28;20054;-79
2024/02/09 07:31:01;;;;;;;9.18;4.22;;;;;;;9.25;100.00;98042.09;5007777;28;20484;-78
2024/02/09 07:33:28;;;;;;;10.27;5.40;;;;;;;9.39;100.00;98042.19;5007413;28;20050;-78
2024/02/09 07:36:30;;;;;;;;;;;;;;;;;;;;;
2024/02/09 07:39:32;;;;;;;9.38;4.85;;;;;;;9.49;100.00;98042.69;4991626;28;20455;-79
2024/02/09 07:42:33;;;;;;;13.75;4.95;;;;;;;9.54;100.00;98046.38;4993130;28;20069;-78
2024/02/09 07:45:35;;;;;;;;;;;;;;;;;;;;;
2024/02/09 07:48:05;;;;;;;8.10;4.85;;;;;;;9.65;99.97;98041.59;4980501;28;20046;-79
2024/02/09 07:51:09;;;;;;;10.38;5.28;;;;;;;9.67;99.59;98039.56;4979054;28;20529;-79
2024/02/09 07:57:26;;;;;;;8.75;4.47;;;;;;;9.72;99.07;98030.03;4983872;28;20057;-78
2024/02/09 08:03:48;;;;;;;;;;;;;;;;;;;;;
2024/02/09 08:06:55;;;;;;;11.65;4.18;;;;;;;9.82;100.00;98042.91;4969490;28;20050;-79
2024/02/09 08:10:17;;;;;;;7.78;4.38;;;;;;;9.90;98.93;98039.31;4983603;28;20050;-77
2024/02/09 08:13:05;;;;;;;10.27;4.45;;;;;;;9.81;100.00;98043.91;4941141;28;20476;-79
2024/02/09 08:15:59;;;;;;;11.23;5.20;;;;;;;9.77;100.00;98046.13;4983165;28;20142;-78
2024/02/09 08:18:31;;;;;;;9.38;4.70;;;;;;;9.85;100.00;98047.81;4982331;28;20088;-78
2024/02/09 08:21:18;;;;;;;9.52;4.25;;;;;;;9.87;100.00;98051.09;4975946;28;20057;-79
2024/02/09 08:24:02;;;;;;;10.77;4.18;;;;;;;9.91;100.00;98049.69;4977851;28;20062;-79
2024/02/09 08:26:45;;;;;;;9.13;4.38;;;;;;;9.92;100.00;98059.25;4979418;28;20494;-79
2024/02/09 08:29:22;;;;;;;8.25;4.45;;;;;;;9.93;100.00;98055.59;4975094;28;20058;-80
2024/02/09 08:35:21;;;;;;;6.63;3.90;;;;;;;10.09;98.48;98052.66;4983165;28;20425;-79
2024/02/09 08:38:00;;;;;;;6.82;3.83;;;;;;;10.09;99.15;98055.31;4976645;28;20051;-80
2024/02/09 08:40:31;;;;;;;7.80;3.95;;;;;;;10.16;98.85;98054.50;4979232;28;20050;-81
2024/02/09 08:43:14;;;;;;;6.40;3.72;;;;;;;10.12;99.01;98060.19;4982696;28;20046;-80
2024/02/09 08:45:47;;;;;;;8.07;3.92;;;;;;;10.20;98.76;98064.50;4981288;28;20047;-80
2024/02/09 08:48:32;;;;;;;6.45;3.30;;;;;;;10.18;98.32;98050.69;4980753;28;20087;-80
2024/02/09 08:53:42;;;;;;;6.93;4.22;;;;;;;10.29;98.27;98058.06;4977877;28;20150;-80
2024/02/09 08:56:09;;;;;;;6.35;3.42;;;;;;;10.29;98.78;98058.06;4986356;28;20051;-79
2024/02/09 08:58:49;;;;;;;6.30;3.33;;;;;;;10.34;97.38;98057.47;4988063;28;20047;-79
2024/02/09 09:01:26;;;;;;;8.40;3.42;;;;;;;10.38;97.49;98064.00;4987469;28;20122;-79
2024/02/09 09:04:03;;;;;;;7.68;3.70;;;;;;;10.45;96.96;98064.06;4983189;28;20106;-79
2024/02/09 09:06:33;;;;;;;8.82;3.50;;;;;;;10.45;97.48;98064.06;4978304;28;20132;-78
2024/02/09 09:09:15;;;;;;;5.53;3.58;;;;;;;10.47;96.52;98062.84;4973154;28;20100;-79
2024/02/09 09:11:44;;;;;;;6.93;3.50;;;;;;;10.54;96.38;98058.41;4977163;28;20058;-78
2024/02/09 09:14:22;;;;;;;4.45;3.30;;;;;;;10.67;96.22;98046.22;4976410;28;20051;-79
2024/02/09 09:17:00;;;;;;;6.20;3.38;;;;;;;10.94;93.87;98047.09;4987371;28;20054;-79
2024/02/09 09:19:30;;;;;;;7.97;3.40;;;;;;;11.06;94.08;98050.81;4982354;28;20055;-79
2024/02/09 09:21:57;;;;;;;5.82;3.45;;;;;;;11.11;92.75;98045.72;4974799;28;20061;-79
2024/02/09 09:24:33;;;;;;;7.05;3.67;;;;;;;11.17;92.31;98046.78;4981544;28;20477;-80
2024/02/09 09:27:00;;;;;;;5.20;3.38;;;;;;;11.26;92.44;98050.84;4981705;28;20085;-79
2024/02/09 09:29:33;;;;;;;7.03;4.05;;;;;;;11.10;93.90;98055.50;4981149;28;20129;-79
2024/02/09 09:32:05;;;;;;;;;;;;;;;11.17;92.69;98065.31;4991230;28;20458;-81
2024/02/09 09:35:11;;;;;;;10.50;4.13;;;;;;;11.15;93.10;98065.47;4987494;28;19989;-81
2024/02/09 09:37:54;;;;;;;5.85;3.00;;;;;;;11.16;92.90;98059.16;4987368;28;20066;-82
2024/02/09 09:40:29;;;;;;;5.95;3.40;;;;;;;11.25;92.69;98054.50;4999316;28;20077;-81
2024/02/09 09:43:09;;;;;;;6.05;3.35;;;;;;;11.28;91.89;98049.63;4987630;28;20078;-81
2024/02/09 09:45:59;;;;;;;5.50;3.00;;;;;;;11.37;91.20;98052.88;4995045;28;20073;-81
2024/02/09 09:48:49;;;;;;;5.65;3.10;;;;;;;11.27;91.06;98052.47;4986966;28;20058;-81
2024/02/09 09:51:48;;;;;;;6.63;3.25;;;;;;;11.24;90.44;98056.34;4981833;28;20086;-82
2024/02/09 09:55:10;;;;;;;7.13;3.40;;;;;;;11.22;91.42;98061.03;4987139;28;20055;-81
2024/02/09 09:57:49;;;;;;;7.72;3.30;;;;;;;11.18;91.40;98061.63;4988391;28;20047;-82
2024/02/09 10:00:44;;;;;;;5.10;3.25;;;;;;;11.17;92.13;98066.13;5000475;28;20057;-82
2024/02/09 10:03:26;;;;;;;5.32;3.38;;;;;;;11.15;91.00;98065.47;4979409;28;20080;-81
2024/02/09 10:06:18;;;;;;;6.97;3.78;;;;;;;11.09;92.31;98068.94;4988216;28;20047;-81
2024/02/09 10:16:05;;;;;;;7.60;3.70;;;;;;;11.13;92.39;98073.63;4956639;28;20050;-82
2024/02/09 10:29:16;;;;;;;4.88;3.67;;;;;;;11.03;91.90;98073.22;4880802;29;20120;-82
2024/02/09 10:31:53;;;;;;;5.43;3.60;;;;;;;11.15;91.59;98076.06;4886247;29;20049;-82
2024/02/09 10:34:35;;;;;;;4.97;3.65;;;;;;;11.22;90.89;98078.75;4905227;29;20116;-80
2024/02/09 10:37:34;;;;;;;4.97;3.53;;;;;;;11.33;89.42;98076.31;4940372;29;20151;-79
2024/02/09 10:40:43;;;;;;;6.50;4.00;;;;;;;11.26;90.36;98082.63;4919236;29;20133;-82
2024/02/09 10:46:34;;;;;;;6.60;3.75;;;;;;;11.28;89.84;98077.94;4924467;29;20180;-81
2024/02/09 10:52:05;;;;;;;8.13;3.88;;;;;;;11.34;89.68;98079.75;4916270;29;20059;-82
2024/02/09 10:54:50;;;;;;;4.95;3.70;;;;;;;11.32;88.68;98079.16;4932196;29;20051;-82
2024/02/09 10:57:33;;;;;;;5.95;3.85;;;;;;;11.39;88.35;98082.66;4968049;28;20047;-82
2024/02/09 11:00:23;;;;;;;;;;;;;;;;;;;;;
2024/02/09 11:02:54;;;;;;;8.40;3.80;;;;;;;11.44;86.89;98079.38;4984915;28;20098;-83
2024/02/09 11:05:21;;;;;;;5.15;3.25;;;;;;;11.46;86.78;98080.81;4985546;28;20575;-80
2024/02/09 11:08:12;;;;;;;5.63;3.60;;;;;;;11.41;87.58;98087.72;4985221;28;20128;-79
2024/02/09 11:10:42;;;;;;;6.32;3.60;;;;;;;11.40;87.74;98078.97;4969950;28;20396;-81
2024/02/09 11:13:23;;;;;;;5.53;3.30;;;;;;;11.44;87.37;98088.16;4986626;28;20051;-80
2024/02/09 11:15:55;;;;;;;8.50;3.83;;;;;;;11.42;87.76;98087.50;4982345;28;20050;-80
2024/02/09 11:18:22;;;;;;;7.75;3.65;;;;;;;11.37;88.16;98085.47;4983929;28;20420;-80
2024/02/09 11:20:48;;;;;;;5.68;3.75;;;;;;;11.39;87.49;98082.66;4979309;28;20141;-80
2024/02/09 11:23:15;;;;;;;6.53;4.00;;;;;;;11.43;87.02;98085.69;4987413;28;20115;-80
2024/02/09 11:25:46;;;;;;;6.50;3.90;;;;;;;11.41;87.58;98080.59;4987901;28;20566;-79
2024/02/09 11:28:16;;;;;;;8.82;3.85;;;;;;;11.50;87.51;98091.81;4979826;28;20132;-82
2024/02/09 11:30:44;;;;;;;6.47;3.25;;;;;;;11.52;87.24;98087.13;4991634;28;20474;-80
2024/02/09 11:33:14;;;;;;;6.53;3.92;;;;;;;11.51;87.25;98086.31;4987832;28;20051;-80
2024/02/09 11:35:48;;;;;;;7.63;4.30;;;;;;;11.48;87.21;98088.56;4990185;28;20070;-81
2024/02/09 11:38:19;;;;;;;6.05;3.78;;;;;;;11.52;87.14;98090.59;4991024;28;20134;-81
2024/02/09 11:40:45;;;;;;;8.45;4.05;;;;;;;11.55;86.62;98086.72;4992942;28;20057;-79
2024/02/09 11:43:18;;;;;;;5.30;3.88;;;;;;;11.52;88.19;98087.97;4990019;28;20074;-79
2024/02/09 11:45:45;;;;;;;5.28;3.80;;;;;;;11.58;89.21;98084.47;4996315;28;20079;-81
2024/02/09 11:48:14;;;;;;;5.22;3.55;;;;;;;11.53;89.04;98088.75;4997014;28;20043;-81
2024/02/09 11:50:43;;;;;;;4.25;3.25;;;;;;;11.61;89.11;98091.22;4983594;28;20094;-82
2024/02/09 11:53:12;;;;;;;8.10;4.00;;;;;;;11.58;87.84;98079.19;4983082;28;20461;-82
2024/02/09 11:55:42;;;;;;;5.60;3.53;;;;;;;11.61;88.42;98081.44;5022270;23;20048;-83
2024/02/09 11:58:25;;;;;;;5.03;3.53;;;;;;;11.64;87.93;98083.66;5021692;28;20073;-81
2024/02/09 12:01:17;;;;;;;4.80;3.42;;;;;;;11.71;88.45;98086.31;5019225;28;20109;-81
2024/02/09 12:04:02;;;;;;;7.68;3.80;;;;;;;11.78;88.29;98078.34;5027576;28;20519;-81
2024/02/09 12:06:53;;;;;;;7.63;3.65;;;;;;;11.93;87.17;98079.00;5035999;28;20053;-82
2024/02/09 12:09:19;;;;;;;5.55;3.67;;;;;;;12.10;86.47;98096.13;5037180;22;20453;-77
2024/02/09 12:11:46;;;;;;;4.88;3.25;;;;;;;12.23;84.99;98089.94;5010573;28;20088;-78
2024/02/09 12:14:15;;;;;;;5.10;3.40;;;;;;;12.28;84.49;98081.41;5007909;28;20046;-76
2024/02/09 12:16:41;;;;;;;5.68;3.55;;;;;;;12.27;83.98;98077.91;5009643;28;20082;-77
2024/02/09 12:19:08;;;;;;;8.25;3.75;;;;;;;12.37;83.84;98082.81;5007883;28;20080;-77
2024/02/09 12:21:35;;;;;;;5.55;3.50;;;;;;;12.40;82.97;98079.72;5003471;28;20058;-78
2024/02/09 12:24:01;;;;;;;6.78;3.30;;;;;;;12.42;83.33;98083.00;5009287;28;20085;-78
2024/02/09 12:26:28;;;;;;;6.03;3.72;;;;;;;12.46;82.48;98089.50;5011035;28;20077;-78
2024/02/09 12:28:55;;;;;;;4.60;3.25;;;;;;;12.48;81.73;98086.63;5014843;28;20180;-78
2024/02/09 12:31:23;;;;;;;6.10;3.40;;;;;;;12.56;81.49;98079.25;5012417;28;20081;-78
2024/02/09 12:33:51;;;;;;;5.22;3.38;;;;;;;12.63;81.78;98085.38;5011568;28;20053;-78
2024/02/09 12:36:20;;;;;;;4.18;3.20;;;;;;;12.74;81.22;98077.78;5011679;28;20042;-78
2024/02/09 12:38:54;;;;;;;6.82;3.80;;;;;;;12.82;81.64;98085.50;5009525;28;20100;-77
2024/02/09 12:41:21;;;;;;;7.40;3.65;;;;;;;12.85;82.16;98080.56;5012662;28;20046;-77
2024/02/09 12:43:56;;;;;;;4.28;3.35;;;;;;;12.78;80.13;98085.09;5012005;28;20109;-76
2024/02/09 12:46:25;;;;;;;6.68;3.05;;;;;;;12.81;80.74;98083.84;5012091;28;20129;-77
2024/02/09 12:48:51;;;;;;;5.10;3.60;;;;;;;12.76;81.90;98088.97;5011660;28;20046;-76
2024/02/09 12:51:18;;;;;;;5.22;3.55;;;;;;;12.80;80.17;98090.19;5007213;28;20479;-77
2024/02/09 12:53:45;;;;;;;5.78;3.50;;;;;;;12.83;79.73;98089.78;5013247;28;20148;-76
2024/02/09 12:56:11;;;;;;;5.53;3.55;;;;;;;12.81;80.28;98081.19;5012387;28;20049;-76
2024/02/09 12:58:38;;;;;;;5.30;3.88;;;;;;;12.73;79.47;98092.88;4997192;28;20523;-77
2024/02/09 13:01:06;;;;;;;7.45;3.72;;;;;;;12.79;80.18;98086.72;5005876;28;20136;-77
2024/02/09 13:03:34;;;;;;;6.25;3.50;;;;;;;12.81;79.27;98081.19;5008315;28;20052;-77
2024/02/09 13:06:05;;;;;;;4.53;3.22;;;;;;;12.72;80.68;98085.94;5004397;28;20088;-77
2024/02/09 13:08:32;;;;;;;8.35;3.20;;;;;;;12.72;79.49;98085.13;5009942;28;20124;-76
2024/02/09 13:10:59;;;;;;;5.95;3.40;;;;;;;12.77;79.92;98088.78;5013388;28;20049;-76
2024/02/09 13:13:26;;;;;;;9.85;3.80;;;;;;;12.72;79.63;98082.47;5012536;28;20069;-77
2024/02/09 13:15:52;;;;;;;8.18;4.72;;;;;;;12.63;80.79;98079.22;5012531;28;20146;-76
2024/02/09 13:18:19;;;;;;;8.05;3.80;;;;;;;12.62;80.16;98083.72;5015333;28;20506;-76
2024/02/09 13:20:48;;;;;;;5.43;3.50;;;;;;;12.65;79.25;98078.00;5015131;28;20061;-76
2024/02/09 13:23:15;;;;;;;5.05;3.50;;;;;;;12.58;79.89;98082.50;5000286;28;20046;-77
2024/02/09 13:25:42;;;;;;;5.80;3.40;;;;;;;12.55;80.25;98082.94;5010221;28;20081;-77
2024/02/09 13:28:08;;;;;;;4.68;3.10;;;;;;;12.62;79.82;98081.06;5015508;28;20120;-77
2024/02/09 13:30:36;;;;;;;6.25;3.67;;;;;;;12.65;79.79;98078.00;5015146;28;20080;-75
2024/02/09 13:33:03;;;;;;;5.25;3.42;;;;;;;12.54;79.96;98070.69;5012518;28;20141;-76
2024/02/09 13:35:29;;;;;;;7.00;3.17;;;;;;;12.55;80.33;98074.19;5015070;28;20531;-75
2024/02/09 13:37:57;;;;;;;4.90;3.13;;;;;;;12.61;79.92;98076.78;5014475;28;20176;-76
2024/02/09 13:40:24;;;;;;;6.63;3.20;;;;;;;12.58;79.40;98071.91;5011741;28;20069;-76
2024/02/09 13:42:51;;;;;;;4.55;3.10;;;;;;;12.50;79.61;98076.63;5012278;28;20062;-77
2024/02/09 13:45:21;;;;;;;3.30;3.00;;;;;;;12.46;79.60;98065.63;4998003;28;20052;-77
2024/02/09 13:47:49;;;;;;;7.75;4.20;;;;;;;12.48;79.48;98062.75;5012899;28;20045;-76
2024/02/09 13:50:16;;;;;;;4.53;3.17;;;;;;;12.43;79.44;98063.38;5014138;28;20515;-76
2024/02/09 13:52:44;;;;;;;6.25;4.05;;;;;;;12.38;79.78;98074.63;5013199;28;20073;-77
2024/02/09 13:55:13;;;;;;;4.25;2.95;;;;;;;12.42;79.93;98072.38;5000366;28;20054;-77
2024/02/09 13:57:43;;;;;;;4.40;3.00;;;;;;;12.35;80.30;98072.38;5003688;28;20050;-76
2024/02/09 14:00:11;;;;;;;3.78;3.15;;;;;;;12.46;80.15;98062.19;5003709;28;20528;-77
2024/02/09 14:02:37;;;;;;;3.92;3.10;;;;;;;12.42;79.90;98066.25;5005197;28;20050;-77
2024/02/09 14:05:04;;;;;;;4.82;3.00;;;;;;;12.39;79.78;98064.84;5004370;28;20078;-77
2024/02/09 14:07:31;;;;;;;6.20;3.42;;;;;;;12.31;80.72;98070.34;5013530;28;20129;-77
2024/02/09 14:09:58;;;;;;;4.18;3.20;;;;;;;12.43;79.65;98073.19;5010717;28;20050;-76
2024/02/09 14:12:27;;;;;;;4.47;3.20;;;;;;;12.44;80.17;98077.47;5011608;28;20148;-77
2024/02/09 14:14:54;;;;;;;7.13;3.65;;;;;;;12.40;80.14;98079.72;5014216;28;20103;-76
2024/02/09 14:17:21;;;;;;;4.53;3.30;;;;;;;12.40;80.66;98085.03;5014403;28;20113;-76
2024/02/09 14:19:48;;;;;;;5.50;3.50;;;;;;;12.39;80.50;98086.88;5005978;28;20082;-76
2024/02/09 14:22:14;;;;;;;6.03;3.20;;;;;;;12.47;80.48;98083.19;5008570;28;20516;-76
2024/02/09 14:24:41;;;;;;;3.58;2.90;;;;;;;12.43;80.62;98089.09;5013784;28;20128;-76